Time;durP1;ratioP1;P1;durP2;ratioP2;P2;SDS_P1;SDS_P2;PMS_P1;PMS_P2;Temp;Humidity;BMP_temperature;BMP_pressure;BME280_temperature;BME280_humidity;BME280_pressure;Samples;Min_cycle;Max_cycle;Signal;HPM_P1;HPM_P2
2022/04/17 00:02:37;;;;;;;;;1.75;1.75;;;;;;;;5101403;27;51071;-48
2022/04/17 00:05:21;;;;;;;;;9.75;5.75;;;;;;;;5100605;27;51138;-48
2022/04/17 00:08:06;;;;;;;;;2.50;2.25;;;;;;;;5101194;27;51180;-47
2022/04/17 00:10:50;;;;;;;;;4.75;4.75;;;;;;;;5100908;27;51114;-47
2022/04/17 00:13:35;;;;;;;;;2.75;2.50;;;;;;;;5101056;27;51072;-50
2022/04/17 00:16:19;;;;;;;;;1.50;1.00;;;;;;;;5100462;27;51377;-50
2022/04/17 00:19:03;;;;;;;;;2.25;2.25;;;;;;;;5095076;27;51109;-49
2022/04/17 00:21:49;;;;;;;;;6.25;3.00;;;;;;;;5101069;27;51249;-48
2022/04/17 00:24:33;;;;;;;;;4.25;3.75;;;;;;;;5100549;27;51188;-50
2022/04/17 00:27:18;;;;;;;;;4.00;3.25;;;;;;;;5100925;27;51168;-52
2022/04/17 00:30:03;;;;;;;;;3.00;1.00;;;;;;;;5085138;27;51146;-48
2022/04/17 00:32:47;;;;;;;;;9.75;9.25;;;;;;;;5100753;27;51000;-49
2022/04/17 00:35:32;;;;;;;;;1.00;1.00;;;;;;;;5100588;27;51074;-49
2022/04/17 00:38:16;;;;;;;;;6.00;4.50;;;;;;;;5100672;27;51069;-49
2022/04/17 00:41:00;;;;;;;;;3.50;2.50;;;;;;;;5100342;27;51047;-49
2022/04/17 00:43:46;;;;;;;;;3.75;3.50;;;;;;;;5100288;27;51654;-51
2022/04/17 00:46:30;;;;;;;;;3.75;2.00;;;;;;;;5097687;27;51412;-49
2022/04/17 00:49:15;;;;;;;;;2.25;2.00;;;;;;;;5100346;27;51167;-51
2022/04/17 00:51:59;;;;;;;;;3.00;1.75;;;;;;;;5100935;27;51106;-51
2022/04/17 00:54:46;;;;;;;;;4.00;2.75;;;;;;;;5100086;27;51094;-52
2022/04/17 00:57:31;;;;;;;;;4.75;1.50;;;;;;;;5100037;27;51149;-48
2022/04/17 01:00:18;;;;;;;;;2.75;2.25;;;;;;;;5100207;27;51065;-50
2022/04/17 01:03:02;;;;;;;;;3.25;1.75;;;;;;;;5100621;27;51109;-50
2022/04/17 01:05:47;;;;;;;;;3.50;2.00;;;;;;;;5084171;27;51451;-47
2022/04/17 01:08:34;;;;;;;;;4.75;3.25;;;;;;;;5100226;27;51204;-50
2022/04/17 01:11:18;;;;;;;;;2.00;1.00;;;;;;;;5099911;27;51053;-51
2022/04/17 01:14:04;;;;;;;;;2.00;1.50;;;;;;;;5100106;27;51231;-49
2022/04/17 01:16:48;;;;;;;;;2.50;0.75;;;;;;;;5100202;27;51086;-47
2022/04/17 01:19:33;;;;;;;;;1.75;0.75;;;;;;;;5100171;27;51340;-51
2022/04/17 01:22:18;;;;;;;;;1.00;0.75;;;;;;;;5099850;27;51208;-49
2022/04/17 01:28:06;;;;;;;;;1.75;1.00;;;;;;;;5100019;27;51061;-49
2022/04/17 01:30:54;;;;;;;;;4.00;1.00;;;;;;;;5099318;27;50988;-49
2022/04/17 01:33:38;;;;;;;;;2.00;1.50;;;;;;;;5099939;27;51199;-49
2022/04/17 01:36:22;;;;;;;;;0.50;0.50;;;;;;;;5097087;27;51141;-51
2022/04/17 01:39:06;;;;;;;;;2.25;1.25;;;;;;;;5099729;27;51169;-52
2022/04/17 01:41:51;;;;;;;;;1.00;0.75;;;;;;;;5099916;27;51074;-51
2022/04/17 01:44:35;;;;;;;;;4.00;1.00;;;;;;;;5099683;27;51545;-50
2022/04/17 01:47:20;;;;;;;;;5.25;1.50;;;;;;;;5100148;27;51393;-49
2022/04/17 01:50:05;;;;;;;;;1.00;0.00;;;;;;;;5099566;27;51011;-49
2022/04/17 01:52:49;;;;;;;;;1.50;0.75;;;;;;;;5100018;27;51370;-52
2022/04/17 01:55:35;;;;;;;;;0.25;0.00;;;;;;;;5099803;27;51520;-47
2022/04/17 01:58:19;;;;;;;;;1.25;0.75;;;;;;;;5099836;27;51073;-51
2022/04/17 02:01:04;;;;;;;;;1.00;0.75;;;;;;;;5084256;27;51469;-52
2022/04/17 02:03:48;;;;;;;;;0.25;0.25;;;;;;;;5099259;27;51089;-49
2022/04/17 02:06:32;;;;;;;;;1.25;0.75;;;;;;;;5100088;27;51200;-50
2022/04/17 02:09:17;;;;;;;;;1.00;1.00;;;;;;;;5102245;27;51517;-52
2022/04/17 02:12:01;;;;;;;;;2.25;1.75;;;;;;;;5103204;27;51535;-50
2022/04/17 02:14:46;;;;;;;;;2.25;2.25;;;;;;;;5103093;27;51010;-50
2022/04/17 02:17:34;;;;;;;;;2.25;2.00;;;;;;;;5103358;27;51067;-51
2022/04/17 02:20:19;;;;;;;;;2.00;2.00;;;;;;;;5102970;27;51065;-52
2022/04/17 02:23:03;;;;;;;;;1.75;0.75;;;;;;;;5102832;27;51121;-48
2022/04/17 02:25:47;;;;;;;;;2.50;2.50;;;;;;;;5103235;27;51415;-51
2022/04/17 02:28:35;;;;;;;;;2.75;1.75;;;;;;;;5103186;27;51065;-50
2022/04/17 02:31:19;;;;;;;;;4.50;1.75;;;;;;;;5103387;27;51041;-49
2022/04/17 02:34:03;;;;;;;;;4.00;0.75;;;;;;;;5102864;27;51160;-52
2022/04/17 02:36:48;;;;;;;;;1.00;0.75;;;;;;;;5102910;27;51517;-48
2022/04/17 02:39:33;;;;;;;;;5.00;2.00;;;;;;;;5102551;27;51121;-51
2022/04/17 02:42:17;;;;;;;;;0.75;0.75;;;;;;;;5102694;27;51168;-52
2022/04/17 02:45:01;;;;;;;;;1.00;1.00;;;;;;;;5102587;27;51557;-47
2022/04/17 02:47:48;;;;;;;;;1.25;1.25;;;;;;;;5102572;27;51048;-50
2022/04/17 02:50:32;;;;;;;;;1.75;0.75;;;;;;;;5102945;27;51067;-52
2022/04/17 02:53:17;;;;;;;;;1.50;1.50;;;;;;;;5102245;27;51176;-50
2022/04/17 02:56:01;;;;;;;;;1.00;1.00;;;;;;;;5102429;27;51047;-52
2022/04/17 02:58:46;;;;;;;;;1.75;1.75;;;;;;;;5101583;27;51460;-51
2022/04/17 03:07:36;;;;;;;;;3.75;3.75;;;;;;;;5102810;27;51161;-51
2022/04/17 03:10:21;;;;;;;;;1.75;1.75;;;;;;;;5102085;27;51405;-52
2022/04/17 03:13:05;;;;;;;;;1.00;1.00;;;;;;;;5102088;27;51059;-50
2022/04/17 03:15:49;;;;;;;;;1.75;1.00;;;;;;;;5102132;27;51032;-52
2022/04/17 03:18:34;;;;;;;;;2.50;2.50;;;;;;;;5101987;27;51150;-52
2022/04/17 03:21:18;;;;;;;;;4.25;2.00;;;;;;;;5101871;27;51130;-51
2022/04/17 03:24:02;;;;;;;;;3.50;1.00;;;;;;;;5099612;27;51110;-49
2022/04/17 03:26:47;;;;;;;;;4.00;2.50;;;;;;;;5101989;27;51164;-48
2022/04/17 03:29:31;;;;;;;;;3.00;2.00;;;;;;;;5085847;27;51145;-51
2022/04/17 03:32:16;;;;;;;;;4.50;4.50;;;;;;;;5101859;27;51070;-51
2022/04/17 03:35:00;;;;;;;;;5.25;3.75;;;;;;;;5101639;27;51541;-49
2022/04/17 03:37:45;;;;;;;;;7.00;5.00;;;;;;;;5101877;27;51244;-51
2022/04/17 03:40:29;;;;;;;;;6.25;5.00;;;;;;;;5101736;27;51249;-49
2022/04/17 03:43:13;;;;;;;;;3.75;3.75;;;;;;;;5101263;27;51222;-53
2022/04/17 03:45:58;;;;;;;;;7.25;6.00;;;;;;;;5101838;27;51077;-51
2022/04/17 03:48:42;;;;;;;;;11.75;10.00;;;;;;;;5101456;27;51431;-50
2022/04/17 03:51:27;;;;;;;;;10.75;8.75;;;;;;;;5101217;27;51603;-51
2022/04/17 03:54:11;;;;;;;;;11.00;9.75;;;;;;;;5101184;27;51079;-49
2022/04/17 03:56:56;;;;;;;;;6.50;5.25;;;;;;;;5101419;27;51047;-51
2022/04/17 03:59:40;;;;;;;;;8.25;6.50;;;;;;;;5100980;27;51128;-49
2022/04/17 04:02:25;;;;;;;;;9.75;9.25;;;;;;;;5101043;27;51221;-48
2022/04/17 04:05:09;;;;;;;;;9.00;7.50;;;;;;;;5101441;27;51017;-46
2022/04/17 04:07:54;;;;;;;;;9.75;7.25;;;;;;;;5101072;27;51077;-49
2022/04/17 04:10:38;;;;;;;;;12.25;7.75;;;;;;;;5101268;27;51166;-50
2022/04/17 04:13:23;;;;;;;;;8.50;6.75;;;;;;;;5100615;27;51157;-49
2022/04/17 04:16:07;;;;;;;;;10.00;9.25;;;;;;;;5100860;27;51557;-49
2022/04/17 04:18:51;;;;;;;;;11.50;11.00;;;;;;;;5100797;27;51186;-49
2022/04/17 04:21:47;;;;;;;;;10.00;10.00;;;;;;;;5100805;27;51051;-49
2022/04/17 04:24:31;;;;;;;;;8.75;7.00;;;;;;;;5084893;27;51451;-49
2022/04/17 04:30:18;;;;;;;;;10.00;7.25;;;;;;;;5100573;27;51182;-47
2022/04/17 04:33:02;;;;;;;;;7.00;7.00;;;;;;;;5100469;27;50995;-47
2022/04/17 04:35:47;;;;;;;;;10.00;9.50;;;;;;;;5100724;27;51055;-51
2022/04/17 04:38:32;;;;;;;;;9.75;9.00;;;;;;;;5100193;27;51367;-49
2022/04/17 04:41:16;;;;;;;;;10.25;9.50;;;;;;;;5100485;27;51046;-50
2022/04/17 04:44:00;;;;;;;;;13.50;12.75;;;;;;;;5100006;27;51218;-51
2022/04/17 04:46:44;;;;;;;;;24.25;22.75;;;;;;;;5100377;27;51158;-47
2022/04/17 04:49:32;;;;;;;;;34.75;30.00;;;;;;;;5099886;27;51434;-49
2022/04/17 04:52:16;;;;;;;;;33.25;30.00;;;;;;;;5100384;27;51124;-53
2022/04/17 04:54:59;;;;;;;;;19.00;18.00;;;;;;;;5100323;27;51626;-49
2022/04/17 04:57:44;;;;;;;;;21.25;18.50;;;;;;;;5100114;27;51113;-48
2022/04/17 05:00:28;;;;;;;;;27.00;23.50;;;;;;;;5100539;27;51042;-51
2022/04/17 05:03:13;;;;;;;;;23.75;20.00;;;;;;;;5099881;27;51180;-48
2022/04/17 05:05:57;;;;;;;;;32.75;29.75;;;;;;;;5100457;27;51058;-49
2022/04/17 05:08:42;;;;;;;;;23.75;19.50;;;;;;;;5099934;27;51180;-47
2022/04/17 05:11:26;;;;;;;;;25.00;22.25;;;;;;;;5100203;27;51208;-49
2022/04/17 05:14:11;;;;;;;;;28.50;23.25;;;;;;;;5100063;27;51313;-47
2022/04/17 05:16:55;;;;;;;;;29.75;26.25;;;;;;;;5100137;27;51078;-50
2022/04/17 05:19:39;;;;;;;;;29.25;25.75;;;;;;;;5100053;27;51073;-51
2022/04/17 05:22:31;;;;;;;;;24.50;20.00;;;;;;;;5099723;27;51136;-48
2022/04/17 05:25:15;;;;;;;;;25.25;24.75;;;;;;;;5100189;27;51070;-49
2022/04/17 05:28:00;;;;;;;;;30.50;29.00;;;;;;;;5099720;27;51212;-51
2022/04/17 05:30:44;;;;;;;;;49.00;40.50;;;;;;;;5100019;27;51208;-48
2022/04/17 05:33:28;;;;;;;;;27.00;24.75;;;;;;;;5099677;27;51148;-48
2022/04/17 05:36:13;;;;;;;;;34.25;27.75;;;;;;;;5099938;27;50975;-49
2022/04/17 05:39:03;;;;;;;;;29.75;24.50;;;;;;;;5099338;27;51105;-49
2022/04/17 05:41:47;;;;;;;;;28.25;26.75;;;;;;;;5099799;27;51090;-49
2022/04/17 05:44:32;;;;;;;;;24.00;22.75;;;;;;;;5103067;27;51548;-48
2022/04/17 05:47:16;;;;;;;;;46.50;37.25;;;;;;;;5103674;27;51071;-49
2022/04/17 05:50:01;;;;;;;;;34.00;27.75;;;;;;;;5103949;27;51256;-48
2022/04/17 05:52:46;;;;;;;;;30.50;29.00;;;;;;;;5103744;27;51201;-48
2022/04/17 05:55:30;;;;;;;;;30.00;25.50;;;;;;;;5103567;27;51542;-49
2022/04/17 05:58:14;;;;;;;;;29.25;26.50;;;;;;;;5103599;27;51135;-47
2022/04/17 06:00:59;;;;;;;;;32.75;30.75;;;;;;;;5103700;27;51085;-48
2022/04/17 06:03:43;;;;;;;;;37.75;30.00;;;;;;;;5103122;27;51333;-49
2022/04/17 06:06:27;;;;;;;;;39.75;32.00;;;;;;;;5103360;27;51034;-49
2022/04/17 06:09:12;;;;;;;;;35.75;30.50;;;;;;;;5103454;27;51533;-47
2022/04/17 06:11:56;;;;;;;;;37.75;34.25;;;;;;;;5102814;27;51090;-48
2022/04/17 06:14:40;;;;;;;;;38.00;28.50;;;;;;;;5103326;27;51113;-48
2022/04/17 06:17:24;;;;;;;;;44.25;36.00;;;;;;;;5103403;27;51408;-48
2022/04/17 06:20:10;;;;;;;;;48.75;39.75;;;;;;;;5103141;27;51129;-48
2022/04/17 06:22:54;;;;;;;;;50.75;42.50;;;;;;;;5102585;27;51295;-49
2022/04/17 06:25:39;;;;;;;;;45.75;37.25;;;;;;;;5103366;27;51125;-49
2022/04/17 06:28:23;;;;;;;;;38.25;31.75;;;;;;;;5102891;27;51529;-48
2022/04/17 06:31:07;;;;;;;;;28.50;27.25;;;;;;;;5102566;27;51249;-47
2022/04/17 06:33:52;;;;;;;;;30.50;30.00;;;;;;;;5103268;27;51371;-51
2022/04/17 06:36:37;;;;;;;;;32.00;28.75;;;;;;;;5102534;27;51054;-50
2022/04/17 06:39:21;;;;;;;;;22.50;22.50;;;;;;;;5103042;27;51147;-52
2022/04/17 06:42:06;;;;;;;;;29.00;24.75;;;;;;;;5102505;27;51286;-49
2022/04/17 06:44:50;;;;;;;;;29.00;27.75;;;;;;;;5102960;27;51159;-52
2022/04/17 06:47:34;;;;;;;;;33.25;30.75;;;;;;;;5102468;27;51126;-50
2022/04/17 06:50:20;;;;;;;;;25.00;23.25;;;;;;;;5102767;27;51120;-51
2022/04/17 06:53:05;;;;;;;;;30.00;25.50;;;;;;;;5102110;27;51113;-51
2022/04/17 06:55:49;;;;;;;;;29.50;27.50;;;;;;;;5102115;27;51064;-48
2022/04/17 06:58:33;;;;;;;;;24.75;18.50;;;;;;;;5102503;27;51476;-51
2022/04/17 07:01:18;;;;;;;;;23.25;20.75;;;;;;;;5101962;27;51189;-51
2022/04/17 07:04:02;;;;;;;;;22.50;21.00;;;;;;;;5102122;27;51078;-50
2022/04/17 07:06:47;;;;;;;;;20.00;17.75;;;;;;;;5102225;27;51134;-49
2022/04/17 07:09:31;;;;;;;;;23.00;20.25;;;;;;;;5102388;27;51497;-52
2022/04/17 07:12:16;;;;;;;;;24.50;20.50;;;;;;;;5100059;27;51102;-49
2022/04/17 07:15:01;;;;;;;;;27.00;23.75;;;;;;;;5102382;27;51118;-51
2022/04/17 07:17:46;;;;;;;;;24.25;18.75;;;;;;;;5101971;27;51551;-50
2022/04/17 07:20:31;;;;;;;;;19.00;16.25;;;;;;;;5102180;27;51150;-52
2022/04/17 07:23:16;;;;;;;;;20.75;19.25;;;;;;;;5101635;27;51487;-51
2022/04/17 07:26:00;;;;;;;;;20.50;20.50;;;;;;;;5101406;27;51097;-52
2022/04/17 07:28:46;;;;;;;;;13.75;13.50;;;;;;;;5102049;27;51152;-49
2022/04/17 07:31:31;;;;;;;;;21.75;18.75;;;;;;;;5101716;27;51155;-50
2022/04/17 07:34:15;;;;;;;;;16.50;14.50;;;;;;;;5101689;27;51378;-50
2022/04/17 07:36:59;;;;;;;;;25.00;17.50;;;;;;;;5101448;27;51086;-47
2022/04/17 07:39:44;;;;;;;;;18.25;18.00;;;;;;;;5101830;27;51192;-51
2022/04/17 07:42:28;;;;;;;;;21.25;19.25;;;;;;;;5100099;27;51409;-50
2022/04/17 07:45:13;;;;;;;;;20.50;15.75;;;;;;;;5101320;27;51177;-52
2022/04/17 07:47:58;;;;;;;;;18.25;15.50;;;;;;;;5101422;27;51069;-51
2022/04/17 07:50:42;;;;;;;;;14.25;13.50;;;;;;;;5101630;27;51116;-48
2022/04/17 07:53:26;;;;;;;;;18.25;17.25;;;;;;;;5099697;27;51066;-49
2022/04/17 07:56:10;;;;;;;;;12.75;12.75;;;;;;;;5101222;27;51029;-52
2022/04/17 07:58:55;;;;;;;;;18.75;16.75;;;;;;;;5097994;27;51426;-50
2022/04/17 08:01:43;;;;;;;;;18.75;17.75;;;;;;;;5100819;27;51325;-50
2022/04/17 08:04:27;;;;;;;;;21.00;17.25;;;;;;;;5101386;27;51110;-54
2022/04/17 08:07:12;;;;;;;;;11.00;10.25;;;;;;;;5084592;27;51203;-51
2022/04/17 08:09:56;;;;;;;;;9.25;7.25;;;;;;;;5101293;27;51104;-51
2022/04/17 08:12:41;;;;;;;;;17.75;15.75;;;;;;;;5100457;27;51087;-50
2022/04/17 08:15:25;;;;;;;;;12.25;9.25;;;;;;;;5101230;27;51004;-50
2022/04/17 08:18:10;;;;;;;;;3.50;3.50;;;;;;;;5100506;27;51204;-51
2022/04/17 08:20:54;;;;;;;;;6.25;6.25;;;;;;;;5100782;27;51188;-48
2022/04/17 08:23:39;;;;;;;;;14.50;13.00;;;;;;;;5100874;27;51540;-54
2022/04/17 08:26:23;;;;;;;;;9.00;7.75;;;;;;;;5100713;27;51427;-50
2022/04/17 08:29:09;;;;;;;;;14.00;13.25;;;;;;;;5100939;27;51062;-51
2022/04/17 08:31:53;;;;;;;;;12.25;11.50;;;;;;;;5100507;27;51185;-51
2022/04/17 08:34:37;;;;;;;;;14.75;13.50;;;;;;;;5100392;27;51147;-49
2022/04/17 08:37:22;;;;;;;;;17.25;15.75;;;;;;;;5100558;27;51091;-52
2022/04/17 08:40:06;;;;;;;;;10.25;10.00;;;;;;;;5100655;27;50988;-49
2022/04/17 08:42:51;;;;;;;;;14.75;12.00;;;;;;;;5100055;27;51515;-48
2022/04/17 08:45:35;;;;;;;;;11.00;9.00;;;;;;;;5100449;27;51097;-48
2022/04/17 08:48:19;;;;;;;;;14.25;8.00;;;;;;;;5100333;27;51159;-50
2022/04/17 08:51:05;;;;;;;;;4.75;4.75;;;;;;;;5100495;27;51143;-48
2022/04/17 08:53:51;;;;;;;;;14.50;13.25;;;;;;;;5100602;27;51107;-48
2022/04/17 08:56:35;;;;;;;;;13.75;11.25;;;;;;;;5100004;27;51184;-49
2022/04/17 08:59:19;;;;;;;;;12.75;12.00;;;;;;;;5100221;27;51083;-49
2022/04/17 09:02:05;;;;;;;;;14.75;13.50;;;;;;;;5100427;27;51113;-49
2022/04/17 09:04:50;;;;;;;;;11.25;10.25;;;;;;;;5100152;27;51054;-51
2022/04/17 09:07:42;;;;;;;;;7.25;6.75;;;;;;;;5099834;27;51521;-47
2022/04/17 09:10:27;;;;;;;;;11.75;10.75;;;;;;;;5099704;27;51066;-50
2022/04/17 09:13:11;;;;;;;;;9.50;7.50;;;;;;;;5100207;27;51358;-50
2022/04/17 09:15:56;;;;;;;;;10.25;9.00;;;;;;;;5099941;27;51312;-51
2022/04/17 09:18:40;;;;;;;;;10.00;9.00;;;;;;;;5103802;27;51082;-49
2022/04/17 09:21:34;;;;;;;;;12.25;10.25;;;;;;;;5103929;27;51201;-48
2022/04/17 09:24:20;;;;;;;;;7.50;7.50;;;;;;;;5104340;27;51166;-49
2022/04/17 09:27:05;;;;;;;;;6.50;6.50;;;;;;;;5093113;27;51295;-48
2022/04/17 09:29:53;;;;;;;;;6.50;6.50;;;;;;;;5104154;27;51201;-48
2022/04/17 09:32:38;;;;;;;;;7.00;7.00;;;;;;;;5104645;27;51417;-48
2022/04/17 09:35:23;;;;;;;;;11.25;10.50;;;;;;;;5104147;27;51350;-48
2022/04/17 09:38:08;;;;;;;;;7.25;6.00;;;;;;;;5102500;27;52375;-49
2022/04/17 09:41:02;;;;;;;;;12.50;10.00;;;;;;;;5103457;27;51164;-49
2022/04/17 09:43:47;;;;;;;;;7.25;6.25;;;;;;;;5104016;27;51354;-50
2022/04/17 09:46:31;;;;;;;;;7.50;5.00;;;;;;;;5103943;27;51528;-49
2022/04/17 09:49:15;;;;;;;;;2.50;2.50;;;;;;;;5103088;27;51183;-52
2022/04/17 09:52:09;;;;;;;;;5.50;3.25;;;;;;;;5101884;27;51038;-49
2022/04/17 09:54:54;;;;;;;;;3.75;3.00;;;;;;;;5101357;27;51048;-51
2022/04/17 09:57:43;;;;;;;;;5.50;2.00;;;;;;;;5101436;27;51165;-48
2022/04/17 10:00:40;;;;;;;;;3.00;1.00;;;;;;;;5101565;27;51180;-49
2022/04/17 10:03:24;;;;;;;;;10.25;9.25;;;;;;;;5101946;27;51638;-49
2022/04/17 10:06:10;;;;;;;;;2.50;2.50;;;;;;;;5103369;27;51047;-47
2022/04/17 10:08:56;;;;;;;;;1.00;1.00;;;;;;;;5103489;27;51086;-49
2022/04/17 10:11:41;;;;;;;;;9.50;9.50;;;;;;;;5102869;27;51164;-49
2022/04/17 10:14:27;;;;;;;;;6.00;5.25;;;;;;;;5103405;27;51090;-49
2022/04/17 10:17:11;;;;;;;;;7.25;5.50;;;;;;;;5103319;27;51145;-47
2022/04/17 10:19:58;;;;;;;;;3.00;3.00;;;;;;;;5103126;27;51011;-50
2022/04/17 10:22:43;;;;;;;;;5.25;2.00;;;;;;;;5102959;27;51143;-49
2022/04/17 10:25:27;;;;;;;;;3.25;2.75;;;;;;;;5103243;27;51046;-49
2022/04/17 10:28:12;;;;;;;;;6.00;4.00;;;;;;;;5102991;27;51462;-52
2022/04/17 10:30:59;;;;;;;;;2.25;2.00;;;;;;;;5102625;27;51523;-50
2022/04/17 10:33:43;;;;;;;;;1.75;1.75;;;;;;;;5103242;27;51090;-53
2022/04/17 10:36:38;;;;;;;;;3.00;1.50;;;;;;;;5102934;27;51331;-53
2022/04/17 10:39:30;;;;;;;;;2.00;1.00;;;;;;;;5102952;27;51176;-51
2022/04/17 10:42:14;;;;;;;;;4.00;0.75;;;;;;;;5102679;27;51850;-48
2022/04/17 10:45:04;;;;;;;;;1.00;0.50;;;;;;;;5102962;27;51140;-50
2022/04/17 10:48:10;;;;;;;;;3.50;3.50;;;;;;;;5102681;27;51086;-51
2022/04/17 10:50:54;;;;;;;;;2.75;2.75;;;;;;;;5102653;27;51394;-50
2022/04/17 10:53:49;;;;;;;;;2.50;2.50;;;;;;;;5102825;27;51177;-50
2022/04/17 10:56:37;;;;;;;;;4.75;3.50;;;;;;;;5103055;27;51141;-46
2022/04/17 10:59:21;;;;;;;;;1.75;1.75;;;;;;;;5102617;27;51145;-49
2022/04/17 11:02:08;;;;;;;;;1.75;1.00;;;;;;;;5102325;27;52212;-48
2022/04/17 11:04:53;;;;;;;;;4.50;2.75;;;;;;;;5086728;27;51048;-51
2022/04/17 11:07:37;;;;;;;;;5.00;3.00;;;;;;;;5102369;27;51071;-47
2022/04/17 11:10:25;;;;;;;;;3.75;2.50;;;;;;;;5102335;27;51153;-50
2022/04/17 11:13:09;;;;;;;;;4.75;1.75;;;;;;;;5101613;27;51498;-52
2022/04/17 11:15:59;;;;;;;;;4.00;2.25;;;;;;;;5101803;27;51167;-51
2022/04/17 11:18:43;;;;;;;;;4.75;2.00;;;;;;;;5102367;27;51284;-49
2022/04/17 11:21:38;;;;;;;;;3.25;3.25;;;;;;;;5101782;27;51106;-48
2022/04/17 11:24:22;;;;;;;;;3.50;2.00;;;;;;;;5102356;27;51069;-51
2022/04/17 11:27:07;;;;;;;;;4.50;2.25;;;;;;;;5102017;27;51362;-51
2022/04/17 11:29:51;;;;;;;;;5.75;4.25;;;;;;;;5101988;27;51124;-51
2022/04/17 11:32:36;;;;;;;;;4.00;3.25;;;;;;;;5101857;27;51234;-49
2022/04/17 11:35:22;;;;;;;;;4.00;2.75;;;;;;;;5102174;27;51155;-51
2022/04/17 11:38:07;;;;;;;;;3.00;2.00;;;;;;;;5101746;27;51122;-52
2022/04/17 11:40:52;;;;;;;;;6.75;4.00;;;;;;;;5100888;27;51070;-49
2022/04/17 11:43:36;;;;;;;;;3.00;1.75;;;;;;;;5101529;27;51542;-50
2022/04/17 11:46:20;;;;;;;;;5.00;3.50;;;;;;;;5101228;27;51127;-52
2022/04/17 11:49:04;;;;;;;;;7.00;3.50;;;;;;;;5101701;27;51082;-49
2022/04/17 11:51:49;;;;;;;;;2.25;2.00;;;;;;;;5101234;27;51153;-49
2022/04/17 11:54:33;;;;;;;;;1.50;1.50;;;;;;;;5101344;27;51061;-52
2022/04/17 11:57:20;;;;;;;;;3.50;2.50;;;;;;;;5101128;27;51007;-48
2022/04/17 12:00:05;;;;;;;;;2.00;2.00;;;;;;;;5101488;27;50948;-49
2022/04/17 12:02:57;;;;;;;;;2.00;2.00;;;;;;;;5100924;27;51367;-46
2022/04/17 12:05:42;;;;;;;;;3.75;2.50;;;;;;;;5101246;27;51193;-47
2022/04/17 12:08:31;;;;;;;;;3.00;2.50;;;;;;;;5100945;27;51040;-49
2022/04/17 12:11:17;;;;;;;;;3.75;3.00;;;;;;;;5100818;27;51192;-48
2022/04/17 12:14:01;;;;;;;;;6.75;5.50;;;;;;;;5101466;27;51181;-48
2022/04/17 12:16:52;;;;;;;;;10.75;9.50;;;;;;;;5100659;27;51422;-49
2022/04/17 12:19:36;;;;;;;;;7.75;5.50;;;;;;;;5100760;27;51161;-47
2022/04/17 12:22:21;;;;;;;;;2.50;2.50;;;;;;;;5100670;27;51194;-47
2022/04/17 12:25:15;;;;;;;;;6.50;5.25;;;;;;;;5101169;27;50442;-49
2022/04/17 12:27:59;;;;;;;;;9.00;7.00;;;;;;;;5100724;27;51513;-48
2022/04/17 12:30:44;;;;;;;;;4.25;4.25;;;;;;;;5095360;27;51143;-50
2022/04/17 12:33:28;;;;;;;;;5.75;5.75;;;;;;;;5100496;27;51419;-48
2022/04/17 12:36:13;;;;;;;;;4.00;4.00;;;;;;;;5100635;27;51118;-49
2022/04/17 12:38:57;;;;;;;;;3.50;3.50;;;;;;;;5100951;27;51050;-48
2022/04/17 12:41:42;;;;;;;;;3.75;2.75;;;;;;;;5100375;27;51553;-49
2022/04/17 12:44:33;;;;;;;;;1.00;1.00;;;;;;;;5100496;27;51352;-50
2022/04/17 12:47:17;;;;;;;;;4.00;1.75;;;;;;;;5100147;27;51042;-51
2022/04/17 12:50:06;;;;;;;;;5.25;4.00;;;;;;;;5100754;27;51461;-48
2022/04/17 12:53:00;;;;;;;;;5.00;4.00;;;;;;;;5099899;27;51525;-48
2022/04/17 12:55:45;;;;;;;;;3.25;3.00;;;;;;;;5100470;27;51140;-48
2022/04/17 12:58:29;;;;;;;;;4.00;2.25;;;;;;;;5100149;27;51323;-50
2022/04/17 13:01:23;;;;;;;;;6.50;4.00;;;;;;;;5100268;27;51146;-49
2022/04/17 13:04:11;;;;;;;;;4.00;4.00;;;;;;;;5100684;27;51153;-47
2022/04/17 13:07:06;;;;;;;;;6.00;3.50;;;;;;;;5099837;27;51074;-48
2022/04/17 13:09:51;;;;;;;;;6.25;5.00;;;;;;;;5099997;27;51656;-50
2022/04/17 13:12:44;;;;;;;;;5.00;4.50;;;;;;;;5099768;27;51177;-48
2022/04/17 13:15:32;;;;;;;;;3.00;2.00;;;;;;;;5100377;27;51157;-47
2022/04/17 13:18:22;;;;;;;;;4.00;2.75;;;;;;;;5094629;27;51087;-49
2022/04/17 13:21:07;;;;;;;;;4.50;3.50;;;;;;;;5099759;27;51092;-50
2022/04/17 13:23:51;;;;;;;;;2.00;2.00;;;;;;;;5099537;27;51008;-53
2022/04/17 13:26:36;;;;;;;;;3.25;2.25;;;;;;;;5099916;27;51137;-49
2022/04/17 13:29:20;;;;;;;;;2.75;2.25;;;;;;;;5100467;27;51038;-49
2022/04/17 13:32:09;;;;;;;;;3.75;2.50;;;;;;;;5098405;27;51078;-48
2022/04/17 13:34:53;;;;;;;;;3.00;3.00;;;;;;;;5099812;27;51115;-48
2022/04/17 13:40:40;;;;;;;;;3.50;2.25;;;;;;;;5100284;27;51191;-47
2022/04/17 13:43:24;;;;;;;;;2.75;2.50;;;;;;;;5099693;27;51537;-48
2022/04/17 13:46:09;;;;;;;;;2.75;2.75;;;;;;;;5099927;27;51321;-51
2022/04/17 13:48:53;;;;;;;;;3.00;3.00;;;;;;;;5099581;27;51499;-49
2022/04/17 13:51:38;;;;;;;;;4.75;3.75;;;;;;;;5099761;27;51081;-49
2022/04/17 13:54:23;;;;;;;;;3.50;1.75;;;;;;;;5100326;27;51110;-48
2022/04/17 13:57:07;;;;;;;;;2.50;2.00;;;;;;;;5099663;27;51043;-51
2022/04/17 13:59:52;;;;;;;;;3.50;2.25;;;;;;;;5099810;27;51438;-50
2022/04/17 14:02:36;;;;;;;;;3.25;2.75;;;;;;;;5099441;27;51033;-50
2022/04/17 14:05:21;;;;;;;;;4.00;2.25;;;;;;;;5102821;27;51090;-48
2022/04/17 14:08:06;;;;;;;;;2.75;2.25;;;;;;;;5102846;27;51214;-49
2022/04/17 14:10:50;;;;;;;;;1.00;1.00;;;;;;;;5103003;27;51163;-49
2022/04/17 14:13:35;;;;;;;;;1.50;1.50;;;;;;;;5103405;27;51433;-49
2022/04/17 14:16:19;;;;;;;;;3.75;2.00;;;;;;;;5103188;27;51598;-48
2022/04/17 14:19:03;;;;;;;;;2.00;2.00;;;;;;;;5103321;27;51146;-49
2022/04/17 14:21:48;;;;;;;;;4.00;2.25;;;;;;;;5102998;27;51565;-49
2022/04/17 14:24:32;;;;;;;;;4.25;1.00;;;;;;;;5103272;27;51440;-52
2022/04/17 14:27:17;;;;;;;;;2.00;0.25;;;;;;;;5102844;27;51142;-49
2022/04/17 14:30:02;;;;;;;;;2.75;2.75;;;;;;;;5104628;27;51020;-50
2022/04/17 14:32:47;;;;;;;;;1.25;1.25;;;;;;;;5102964;27;51524;-51
2022/04/17 14:35:32;;;;;;;;;2.00;1.00;;;;;;;;5104185;27;51196;-52
2022/04/17 14:38:16;;;;;;;;;3.75;1.75;;;;;;;;5102681;27;51000;-52
2022/04/17 14:41:01;;;;;;;;;1.75;1.75;;;;;;;;5102902;27;51217;-48
2022/04/17 14:43:46;;;;;;;;;5.50;3.50;;;;;;;;5102668;27;51388;-51
2022/04/17 14:46:30;;;;;;;;;13.50;13.00;;;;;;;;5101746;27;51490;-49
2022/04/17 14:49:15;;;;;;;;;6.00;2.00;;;;;;;;5102486;27;51121;-50
2022/04/17 14:52:00;;;;;;;;;6.25;5.25;;;;;;;;5102029;27;51177;-49
2022/04/17 14:54:44;;;;;;;;;6.75;3.00;;;;;;;;5103018;27;51007;-50
2022/04/17 14:57:28;;;;;;;;;4.75;2.00;;;;;;;;5102477;27;51034;-49
2022/04/17 15:00:13;;;;;;;;;1.00;1.00;;;;;;;;5102189;27;51147;-48
2022/04/17 15:02:57;;;;;;;;;3.50;2.00;;;;;;;;5101993;27;51374;-47
2022/04/17 15:05:42;;;;;;;;;2.25;0.75;;;;;;;;5101885;27;51139;-52
2022/04/17 15:08:26;;;;;;;;;4.25;2.25;;;;;;;;5102281;27;51128;-52
2022/04/17 15:11:11;;;;;;;;;0.00;0.00;;;;;;;;5102031;27;51557;-49
2022/04/17 15:13:56;;;;;;;;;3.75;2.50;;;;;;;;5102048;27;52167;-52
2022/04/17 15:16:40;;;;;;;;;5.75;1.75;;;;;;;;5101650;27;51229;-52
2022/04/17 15:19:28;;;;;;;;;0.75;0.75;;;;;;;;5102053;27;51183;-50
2022/04/17 15:22:15;;;;;;;;;2.75;0.25;;;;;;;;5101082;27;51172;-50
2022/04/17 15:25:05;;;;;;;;;1.00;1.00;;;;;;;;5102741;27;51060;-51
2022/04/17 15:27:49;;;;;;;;;2.75;1.00;;;;;;;;5102900;27;51081;-50
2022/04/17 15:30:34;;;;;;;;;2.75;2.00;;;;;;;;5101574;27;51152;-48
2022/04/17 15:33:18;;;;;;;;;1.50;1.00;;;;;;;;5102284;27;51148;-51
2022/04/17 15:36:03;;;;;;;;;3.50;2.25;;;;;;;;5076503;27;51378;-50
2022/04/17 15:38:47;;;;;;;;;1.75;0.00;;;;;;;;5101273;27;51098;-49
2022/04/17 15:41:32;;;;;;;;;3.25;0.50;;;;;;;;5101563;27;51169;-52
2022/04/17 15:50:30;;;;;;;;;2.00;2.00;;;;;;;;5100148;27;51222;-52
2022/04/17 15:53:14;;;;;;;;;3.75;2.25;;;;;;;;5101647;27;51415;-49
2022/04/17 15:56:00;;;;;;;;;2.50;1.00;;;;;;;;5100621;27;51126;-49
2022/04/17 15:58:45;;;;;;;;;1.50;1.00;;;;;;;;5101149;27;51156;-53
2022/04/17 16:01:30;;;;;;;;;1.00;1.00;;;;;;;;5101093;27;51066;-49
2022/04/17 16:04:18;;;;;;;;;2.00;1.75;;;;;;;;5101400;27;51085;-47
2022/04/17 16:07:02;;;;;;;;;2.75;2.25;;;;;;;;5100707;27;51083;-50
2022/04/17 16:09:47;;;;;;;;;0.75;0.50;;;;;;;;5101654;27;51018;-49
2022/04/17 16:12:31;;;;;;;;;0.00;0.00;;;;;;;;5100727;27;51463;-50
2022/04/17 16:15:16;;;;;;;;;2.25;1.00;;;;;;;;5101232;27;51147;-50
2022/04/17 16:18:00;;;;;;;;;3.50;1.25;;;;;;;;5100883;27;51568;-51
2022/04/17 16:20:46;;;;;;;;;2.25;0.75;;;;;;;;5100611;27;51191;-50
2022/04/17 16:23:31;;;;;;;;;0.75;0.00;;;;;;;;5101175;27;51157;-51
2022/04/17 16:26:15;;;;;;;;;2.00;0.25;;;;;;;;5100209;27;51406;-51
2022/04/17 16:28:59;;;;;;;;;0.00;0.00;;;;;;;;5100473;27;51211;-51
2022/04/17 16:31:44;;;;;;;;;0.25;0.25;;;;;;;;5100275;27;51332;-48
2022/04/17 16:34:28;;;;;;;;;3.50;0.50;;;;;;;;5099545;27;51171;-54
2022/04/17 16:37:13;;;;;;;;;1.00;0.00;;;;;;;;5100257;27;51061;-49
2022/04/17 16:39:58;;;;;;;;;3.00;0.00;;;;;;;;5100461;27;51210;-48
2022/04/17 16:42:42;;;;;;;;;3.00;1.00;;;;;;;;5100680;27;51893;-50
2022/04/17 16:45:27;;;;;;;;;2.00;2.00;;;;;;;;5100617;27;51172;-51